sensor_id;sensor_type;location;lat;lon;timestamp;P1;durP1;ratioP1;P2;durP2;ratioP2
36789;SDS011;22740;52.182;8.780;2023-11-21T00:05:19;30.17;;;16.55;;
36789;SDS011;22740;52.182;8.780;2023-11-21T00:11:24;28.75;;;16.63;;
36789;SDS011;22740;52.182;8.780;2023-11-21T00:17:27;30.15;;;16.27;;
36789;SDS011;22740;52.182;8.780;2023-11-21T00:23:29;32.55;;;15.70;;
36789;SDS011;22740;52.182;8.780;2023-11-21T00:29:31;29.77;;;16.45;;
36789;SDS011;22740;52.182;8.780;2023-11-21T00:35:34;33.35;;;18.15;;
36789;SDS011;22740;52.182;8.780;2023-11-21T00:41:36;34.75;;;17.15;;
36789;SDS011;22740;52.182;8.780;2023-11-21T00:47:38;32.85;;;16.33;;
36789;SDS011;22740;52.182;8.780;2023-11-21T00:53:41;33.42;;;16.55;;
36789;SDS011;22740;52.182;8.780;2023-11-21T00:59:42;32.13;;;16.38;;
36789;SDS011;22740;52.182;8.780;2023-11-21T01:05:44;36.42;;;17.35;;
36789;SDS011;22740;52.182;8.780;2023-11-21T01:11:47;41.40;;;17.67;;
36789;SDS011;22740;52.182;8.780;2023-11-21T01:17:49;33.22;;;17.23;;
36789;SDS011;22740;52.182;8.780;2023-11-21T01:23:51;37.10;;;17.48;;
36789;SDS011;22740;52.182;8.780;2023-11-21T01:29:53;39.67;;;18.30;;
36789;SDS011;22740;52.182;8.780;2023-11-21T01:35:55;34.45;;;17.48;;
36789;SDS011;22740;52.182;8.780;2023-11-21T01:41:57;35.25;;;17.05;;
36789;SDS011;22740;52.182;8.780;2023-11-21T01:48:00;40.88;;;17.58;;
36789;SDS011;22740;52.182;8.780;2023-11-21T01:54:02;40.58;;;16.63;;
36789;SDS011;22740;52.182;8.780;2023-11-21T02:00:17;39.72;;;16.83;;
36789;SDS011;22740;52.182;8.780;2023-11-21T02:06:20;41.95;;;17.67;;
36789;SDS011;22740;52.182;8.780;2023-11-21T02:12:23;38.20;;;17.00;;
36789;SDS011;22740;52.182;8.780;2023-11-21T02:24:30;29.60;;;15.23;;
36789;SDS011;22740;52.182;8.780;2023-11-21T02:30:32;26.83;;;13.93;;
36789;SDS011;22740;52.182;8.780;2023-11-21T02:36:35;35.50;;;15.43;;
36789;SDS011;22740;52.182;8.780;2023-11-21T02:42:38;34.00;;;15.02;;
36789;SDS011;22740;52.182;8.780;2023-11-21T02:48:40;35.53;;;14.68;;
36789;SDS011;22740;52.182;8.780;2023-11-21T02:54:42;34.42;;;14.75;;
36789;SDS011;22740;52.182;8.780;2023-11-21T03:00:44;29.45;;;14.77;;
36789;SDS011;22740;52.182;8.780;2023-11-21T03:06:46;28.10;;;14.95;;
36789;SDS011;22740;52.182;8.780;2023-11-21T03:12:49;34.35;;;14.55;;
36789;SDS011;22740;52.182;8.780;2023-11-21T03:18:50;30.08;;;14.02;;
36789;SDS011;22740;52.182;8.780;2023-11-21T03:24:53;29.55;;;15.05;;
36789;SDS011;22740;52.182;8.780;2023-11-21T03:30:55;32.58;;;14.45;;
36789;SDS011;22740;52.182;8.780;2023-11-21T03:36:58;40.10;;;15.30;;
36789;SDS011;22740;52.182;8.780;2023-11-21T03:43:00;38.30;;;14.32;;
36789;SDS011;22740;52.182;8.780;2023-11-21T03:49:02;34.53;;;15.43;;
36789;SDS011;22740;52.182;8.780;2023-11-21T03:55:04;32.40;;;14.15;;
36789;SDS011;22740;52.182;8.780;2023-11-21T04:01:06;33.80;;;14.57;;
36789;SDS011;22740;52.182;8.780;2023-11-21T04:07:08;38.03;;;15.00;;
36789;SDS011;22740;52.182;8.780;2023-11-21T04:13:10;33.42;;;14.48;;
36789;SDS011;22740;52.182;8.780;2023-11-21T04:19:12;36.88;;;15.73;;
36789;SDS011;22740;52.182;8.780;2023-11-21T04:25:16;41.03;;;16.20;;
36789;SDS011;22740;52.182;8.780;2023-11-21T04:31:18;40.05;;;17.20;;
36789;SDS011;22740;52.182;8.780;2023-11-21T04:37:20;38.28;;;17.42;;
36789;SDS011;22740;52.182;8.780;2023-11-21T04:43:22;29.90;;;14.73;;
36789;SDS011;22740;52.182;8.780;2023-11-21T04:49:25;39.47;;;16.30;;
36789;SDS011;22740;52.182;8.780;2023-11-21T04:55:27;29.35;;;14.45;;
36789;SDS011;22740;52.182;8.780;2023-11-21T05:01:29;32.15;;;14.57;;
36789;SDS011;22740;52.182;8.780;2023-11-21T05:07:32;35.80;;;14.70;;
36789;SDS011;22740;52.182;8.780;2023-11-21T05:13:34;26.17;;;12.98;;
36789;SDS011;22740;52.182;8.780;2023-11-21T05:19:36;40.08;;;14.80;;
36789;SDS011;22740;52.182;8.780;2023-11-21T05:25:38;31.80;;;13.88;;
36789;SDS011;22740;52.182;8.780;2023-11-21T05:31:41;33.22;;;13.95;;
36789;SDS011;22740;52.182;8.780;2023-11-21T05:37:43;36.15;;;14.30;;
36789;SDS011;22740;52.182;8.780;2023-11-21T05:43:49;29.02;;;13.73;;
36789;SDS011;22740;52.182;8.780;2023-11-21T05:49:50;26.05;;;12.63;;
36789;SDS011;22740;52.182;8.780;2023-11-21T05:55:54;29.02;;;13.57;;
36789;SDS011;22740;52.182;8.780;2023-11-21T06:01:56;25.02;;;13.35;;
36789;SDS011;22740;52.182;8.780;2023-11-21T06:07:58;22.15;;;12.55;;
36789;SDS011;22740;52.182;8.780;2023-11-21T06:14:02;31.47;;;14.47;;
36789;SDS011;22740;52.182;8.780;2023-11-21T06:20:13;32.35;;;14.77;;
36789;SDS011;22740;52.182;8.780;2023-11-21T06:26:16;28.90;;;13.93;;
36789;SDS011;22740;52.182;8.780;2023-11-21T06:32:18;32.08;;;14.20;;
36789;SDS011;22740;52.182;8.780;2023-11-21T06:38:22;35.33;;;15.40;;
36789;SDS011;22740;52.182;8.780;2023-11-21T06:44:24;30.50;;;14.38;;
36789;SDS011;22740;52.182;8.780;2023-11-21T06:50:26;27.30;;;13.60;;
36789;SDS011;22740;52.182;8.780;2023-11-21T06:56:28;29.58;;;13.82;;
36789;SDS011;22740;52.182;8.780;2023-11-21T07:02:30;26.35;;;11.90;;
36789;SDS011;22740;52.182;8.780;2023-11-21T07:08:33;30.05;;;13.27;;
36789;SDS011;22740;52.182;8.780;2023-11-21T07:14:35;26.77;;;12.88;;
36789;SDS011;22740;52.182;8.780;2023-11-21T07:20:37;26.52;;;12.30;;
36789;SDS011;22740;52.182;8.780;2023-11-21T07:26:39;26.85;;;13.50;;
36789;SDS011;22740;52.182;8.780;2023-11-21T07:32:41;22.67;;;11.57;;
36789;SDS011;22740;52.182;8.780;2023-11-21T07:38:43;18.92;;;11.75;;
36789;SDS011;22740;52.182;8.780;2023-11-21T07:44:45;17.15;;;10.60;;
36789;SDS011;22740;52.182;8.780;2023-11-21T07:50:48;22.48;;;11.35;;
36789;SDS011;22740;52.182;8.780;2023-11-21T07:56:49;14.52;;;11.30;;
36789;SDS011;22740;52.182;8.780;2023-11-21T08:02:52;15.65;;;11.05;;
36789;SDS011;22740;52.182;8.780;2023-11-21T08:08:53;12.57;;;9.52;;
36789;SDS011;22740;52.182;8.780;2023-11-21T08:14:55;13.00;;;10.10;;
36789;SDS011;22740;52.182;8.780;2023-11-21T08:20:57;13.15;;;9.70;;
36789;SDS011;22740;52.182;8.780;2023-11-21T08:26:59;19.10;;;11.70;;
36789;SDS011;22740;52.182;8.780;2023-11-21T08:33:01;13.80;;;10.75;;
36789;SDS011;22740;52.182;8.780;2023-11-21T08:39:05;16.60;;;12.13;;
36789;SDS011;22740;52.182;8.780;2023-11-21T08:45:07;18.10;;;11.43;;
36789;SDS011;22740;52.182;8.780;2023-11-21T08:51:10;96.93;;;10.02;;
36789;SDS011;22740;52.182;8.780;2023-11-21T08:57:13;48.47;;;8.98;;
36789;SDS011;22740;52.182;8.780;2023-11-21T09:03:15;30.25;;;7.40;;
36789;SDS011;22740;52.182;8.780;2023-11-21T09:09:17;50.40;;;8.13;;
36789;SDS011;22740;52.182;8.780;2023-11-21T09:15:21;14.65;;;7.63;;
36789;SDS011;22740;52.182;8.780;2023-11-21T09:21:22;51.65;;;7.95;;
36789;SDS011;22740;52.182;8.780;2023-11-21T09:27:26;50.95;;;7.38;;
36789;SDS011;22740;52.182;8.780;2023-11-21T09:33:28;120.22;;;9.05;;
36789;SDS011;22740;52.182;8.780;2023-11-21T09:39:32;7.27;;;6.67;;
36789;SDS011;22740;52.182;8.780;2023-11-21T09:45:37;9.05;;;7.18;;
36789;SDS011;22740;52.182;8.780;2023-11-21T09:51:42;17.57;;;7.20;;
36789;SDS011;22740;52.182;8.780;2023-11-21T09:57:44;9.57;;;7.67;;
36789;SDS011;22740;52.182;8.780;2023-11-21T10:03:46;8.50;;;7.72;;
36789;SDS011;22740;52.182;8.780;2023-11-21T10:09:49;8.57;;;7.75;;
36789;SDS011;22740;52.182;8.780;2023-11-21T10:15:52;7.68;;;6.97;;
36789;SDS011;22740;52.182;8.780;2023-11-21T10:21:55;8.57;;;7.18;;
36789;SDS011;22740;52.182;8.780;2023-11-21T10:28:01;10.45;;;7.10;;
36789;SDS011;22740;52.182;8.780;2023-11-21T10:34:14;9.70;;;6.90;;
36789;SDS011;22740;52.182;8.780;2023-11-21T10:40:17;9.27;;;7.53;;
36789;SDS011;22740;52.182;8.780;2023-11-21T10:46:19;11.18;;;9.23;;
36789;SDS011;22740;52.182;8.780;2023-11-21T10:52:22;10.82;;;7.80;;
36789;SDS011;22740;52.182;8.780;2023-11-21T10:58:28;10.70;;;7.15;;
36789;SDS011;22740;52.182;8.780;2023-11-21T11:04:31;10.00;;;7.13;;
36789;SDS011;22740;52.182;8.780;2023-11-21T11:10:33;10.35;;;6.68;;
36789;SDS011;22740;52.182;8.780;2023-11-21T11:16:36;10.50;;;6.60;;
36789;SDS011;22740;52.182;8.780;2023-11-21T11:22:48;13.40;;;7.47;;
36789;SDS011;22740;52.182;8.780;2023-11-21T11:28:56;10.90;;;7.35;;
36789;SDS011;22740;52.182;8.780;2023-11-21T11:41:32;10.90;;;7.22;;
36789;SDS011;22740;52.182;8.780;2023-11-21T11:47:35;12.93;;;8.07;;
36789;SDS011;22740;52.182;8.780;2023-11-21T11:53:43;10.87;;;7.37;;
36789;SDS011;22740;52.182;8.780;2023-11-21T12:06:23;10.65;;;6.35;;
36789;SDS011;22740;52.182;8.780;2023-11-21T12:12:34;12.55;;;6.70;;
36789;SDS011;22740;52.182;8.780;2023-11-21T12:18:36;9.02;;;5.80;;
36789;SDS011;22740;52.182;8.780;2023-11-21T12:24:39;11.10;;;5.22;;
36789;SDS011;22740;52.182;8.780;2023-11-21T12:30:41;8.38;;;5.22;;
36789;SDS011;22740;52.182;8.780;2023-11-21T12:36:45;9.53;;;4.97;;
36789;SDS011;22740;52.182;8.780;2023-11-21T12:42:47;8.52;;;5.07;;
36789;SDS011;22740;52.182;8.780;2023-11-21T12:48:54;9.00;;;5.18;;
36789;SDS011;22740;52.182;8.780;2023-11-21T12:54:57;7.90;;;4.88;;
36789;SDS011;22740;52.182;8.780;2023-11-21T13:00:59;8.38;;;4.82;;
36789;SDS011;22740;52.182;8.780;2023-11-21T13:07:05;7.95;;;4.32;;
36789;SDS011;22740;52.182;8.780;2023-11-21T13:13:15;5.85;;;3.92;;
36789;SDS011;22740;52.182;8.780;2023-11-21T13:19:25;6.63;;;4.28;;
36789;SDS011;22740;52.182;8.780;2023-11-21T13:25:31;6.95;;;4.25;;
36789;SDS011;22740;52.182;8.780;2023-11-21T13:31:33;6.63;;;4.40;;
36789;SDS011;22740;52.182;8.780;2023-11-21T13:37:38;6.85;;;4.28;;
36789;SDS011;22740;52.182;8.780;2023-11-21T13:43:41;8.05;;;4.50;;
36789;SDS011;22740;52.182;8.780;2023-11-21T13:49:47;6.45;;;4.10;;
36789;SDS011;22740;52.182;8.780;2023-11-21T13:55:53;7.00;;;4.25;;
36789;SDS011;22740;52.182;8.780;2023-11-21T14:01:57;7.78;;;3.92;;
36789;SDS011;22740;52.182;8.780;2023-11-21T14:08:13;6.15;;;3.95;;
36789;SDS011;22740;52.182;8.780;2023-11-21T14:14:19;6.78;;;3.95;;
36789;SDS011;22740;52.182;8.780;2023-11-21T14:20:22;11.23;;;3.88;;
36789;SDS011;22740;52.182;8.780;2023-11-21T14:26:25;6.88;;;4.55;;
36789;SDS011;22740;52.182;8.780;2023-11-21T14:32:28;8.90;;;4.00;;
36789;SDS011;22740;52.182;8.780;2023-11-21T14:38:30;8.23;;;4.43;;
36789;SDS011;22740;52.182;8.780;2023-11-21T14:44:33;6.82;;;3.95;;
36789;SDS011;22740;52.182;8.780;2023-11-21T14:50:39;8.38;;;4.07;;
36789;SDS011;22740;52.182;8.780;2023-11-21T14:57:10;6.65;;;4.07;;
36789;SDS011;22740;52.182;8.780;2023-11-21T15:03:16;5.22;;;4.00;;
36789;SDS011;22740;52.182;8.780;2023-11-21T15:09:33;5.68;;;3.70;;
36789;SDS011;22740;52.182;8.780;2023-11-21T15:15:36;5.85;;;3.85;;
36789;SDS011;22740;52.182;8.780;2023-11-21T15:21:38;6.47;;;3.58;;
36789;SDS011;22740;52.182;8.780;2023-11-21T15:27:40;7.57;;;4.28;;
36789;SDS011;22740;52.182;8.780;2023-11-21T15:33:42;5.38;;;3.85;;
36789;SDS011;22740;52.182;8.780;2023-11-21T15:39:44;7.13;;;4.15;;
36789;SDS011;22740;52.182;8.780;2023-11-21T15:45:47;6.63;;;3.80;;
36789;SDS011;22740;52.182;8.780;2023-11-21T15:51:49;5.97;;;4.25;;
36789;SDS011;22740;52.182;8.780;2023-11-21T15:57:54;6.28;;;3.83;;
36789;SDS011;22740;52.182;8.780;2023-11-21T16:03:56;6.05;;;4.22;;
36789;SDS011;22740;52.182;8.780;2023-11-21T16:09:58;8.35;;;4.18;;
36789;SDS011;22740;52.182;8.780;2023-11-21T16:16:00;7.00;;;4.55;;
36789;SDS011;22740;52.182;8.780;2023-11-21T16:22:02;6.28;;;3.65;;
36789;SDS011;22740;52.182;8.780;2023-11-21T16:28:05;7.38;;;4.38;;
36789;SDS011;22740;52.182;8.780;2023-11-21T16:34:14;6.18;;;4.22;;
36789;SDS011;22740;52.182;8.780;2023-11-21T16:40:21;8.48;;;4.18;;
36789;SDS011;22740;52.182;8.780;2023-11-21T16:46:23;6.57;;;4.35;;
36789;SDS011;22740;52.182;8.780;2023-11-21T16:52:25;6.82;;;3.90;;
36789;SDS011;22740;52.182;8.780;2023-11-21T16:58:27;8.73;;;4.00;;
36789;SDS011;22740;52.182;8.780;2023-11-21T17:04:30;6.78;;;3.80;;
36789;SDS011;22740;52.182;8.780;2023-11-21T17:10:33;5.40;;;3.92;;
36789;SDS011;22740;52.182;8.780;2023-11-21T17:16:36;5.00;;;3.22;;
36789;SDS011;22740;52.182;8.780;2023-11-21T17:22:39;5.70;;;4.00;;
36789;SDS011;22740;52.182;8.780;2023-11-21T17:28:42;6.28;;;4.20;;
36789;SDS011;22740;52.182;8.780;2023-11-21T17:34:44;6.45;;;4.07;;
36789;SDS011;22740;52.182;8.780;2023-11-21T17:40:46;5.90;;;3.60;;
36789;SDS011;22740;52.182;8.780;2023-11-21T17:46:48;5.47;;;3.65;;
36789;SDS011;22740;52.182;8.780;2023-11-21T17:52:51;5.43;;;3.75;;
36789;SDS011;22740;52.182;8.780;2023-11-21T17:58:52;6.65;;;3.85;;
36789;SDS011;22740;52.182;8.780;2023-11-21T18:04:55;4.60;;;2.97;;
36789;SDS011;22740;52.182;8.780;2023-11-21T18:10:58;4.20;;;2.92;;
36789;SDS011;22740;52.182;8.780;2023-11-21T18:17:01;3.53;;;2.60;;
36789;SDS011;22740;52.182;8.780;2023-11-21T18:23:03;6.47;;;3.05;;
36789;SDS011;22740;52.182;8.780;2023-11-21T18:29:05;4.93;;;3.13;;
36789;SDS011;22740;52.182;8.780;2023-11-21T18:35:07;5.65;;;2.95;;
36789;SDS011;22740;52.182;8.780;2023-11-21T18:41:09;5.07;;;3.13;;
36789;SDS011;22740;52.182;8.780;2023-11-21T18:47:12;4.80;;;3.10;;
36789;SDS011;22740;52.182;8.780;2023-11-21T18:53:16;4.57;;;2.72;;
36789;SDS011;22740;52.182;8.780;2023-11-21T18:59:18;4.38;;;2.92;;
36789;SDS011;22740;52.182;8.780;2023-11-21T19:05:22;4.70;;;2.85;;
36789;SDS011;22740;52.182;8.780;2023-11-21T19:11:24;6.15;;;3.03;;
36789;SDS011;22740;52.182;8.780;2023-11-21T19:17:26;4.65;;;3.00;;
36789;SDS011;22740;52.182;8.780;2023-11-21T19:23:28;5.00;;;3.10;;
36789;SDS011;22740;52.182;8.780;2023-11-21T19:29:30;4.25;;;2.80;;
36789;SDS011;22740;52.182;8.780;2023-11-21T19:35:32;5.85;;;3.03;;
36789;SDS011;22740;52.182;8.780;2023-11-21T19:41:40;4.97;;;3.15;;
36789;SDS011;22740;52.182;8.780;2023-11-21T19:47:45;5.70;;;3.25;;
36789;SDS011;22740;52.182;8.780;2023-11-21T19:53:47;4.78;;;3.17;;
36789;SDS011;22740;52.182;8.780;2023-11-21T19:59:49;4.78;;;3.17;;
36789;SDS011;22740;52.182;8.780;2023-11-21T20:05:51;7.65;;;3.42;;
36789;SDS011;22740;52.182;8.780;2023-11-21T20:11:53;8.20;;;3.75;;
36789;SDS011;22740;52.182;8.780;2023-11-21T20:17:55;7.20;;;4.47;;
36789;SDS011;22740;52.182;8.780;2023-11-21T20:23:57;6.88;;;4.50;;
36789;SDS011;22740;52.182;8.780;2023-11-21T20:29:59;6.55;;;4.13;;
36789;SDS011;22740;52.182;8.780;2023-11-21T20:36:01;6.28;;;4.35;;
36789;SDS011;22740;52.182;8.780;2023-11-21T20:42:05;5.97;;;4.03;;
36789;SDS011;22740;52.182;8.780;2023-11-21T20:48:07;5.05;;;3.58;;
36789;SDS011;22740;52.182;8.780;2023-11-21T20:54:09;6.45;;;3.45;;
36789;SDS011;22740;52.182;8.780;2023-11-21T21:00:11;4.35;;;2.53;;
36789;SDS011;22740;52.182;8.780;2023-11-21T21:12:18;3.85;;;2.50;;
36789;SDS011;22740;52.182;8.780;2023-11-21T21:18:20;3.72;;;2.30;;
36789;SDS011;22740;52.182;8.780;2023-11-21T21:24:23;3.20;;;2.22;;
36789;SDS011;22740;52.182;8.780;2023-11-21T21:30:25;6.50;;;2.90;;
36789;SDS011;22740;52.182;8.780;2023-11-21T21:36:29;5.60;;;2.97;;
36789;SDS011;22740;52.182;8.780;2023-11-21T21:42:34;5.50;;;3.03;;
36789;SDS011;22740;52.182;8.780;2023-11-21T21:48:36;5.25;;;3.20;;
36789;SDS011;22740;52.182;8.780;2023-11-21T21:54:38;5.50;;;2.88;;
36789;SDS011;22740;52.182;8.780;2023-11-21T22:00:40;9.73;;;3.30;;
36789;SDS011;22740;52.182;8.780;2023-11-21T22:06:43;5.68;;;3.25;;
36789;SDS011;22740;52.182;8.780;2023-11-21T22:12:45;4.90;;;2.90;;
36789;SDS011;22740;52.182;8.780;2023-11-21T22:18:47;5.80;;;3.30;;
36789;SDS011;22740;52.182;8.780;2023-11-21T22:24:52;5.90;;;3.00;;
36789;SDS011;22740;52.182;8.780;2023-11-21T22:30:54;4.07;;;2.60;;
36789;SDS011;22740;52.182;8.780;2023-11-21T22:36:56;4.50;;;2.60;;
36789;SDS011;22740;52.182;8.780;2023-11-21T22:42:58;7.53;;;3.10;;
36789;SDS011;22740;52.182;8.780;2023-11-21T22:49:00;5.28;;;3.08;;
36789;SDS011;22740;52.182;8.780;2023-11-21T22:55:03;3.70;;;2.55;;
36789;SDS011;22740;52.182;8.780;2023-11-21T23:01:06;5.28;;;2.50;;
36789;SDS011;22740;52.182;8.780;2023-11-21T23:07:12;5.53;;;2.97;;
36789;SDS011;22740;52.182;8.780;2023-11-21T23:13:14;5.15;;;2.97;;
36789;SDS011;22740;52.182;8.780;2023-11-21T23:19:16;5.35;;;3.20;;
36789;SDS011;22740;52.182;8.780;2023-11-21T23:25:18;6.80;;;3.30;;
36789;SDS011;22740;52.182;8.780;2023-11-21T23:31:22;6.47;;;3.22;;
36789;SDS011;22740;52.182;8.780;2023-11-21T23:37:23;3.80;;;2.38;;
36789;SDS011;22740;52.182;8.780;2023-11-21T23:43:25;4.25;;;2.70;;
36789;SDS011;22740;52.182;8.780;2023-11-21T23:55:32;4.28;;;2.63;;
